Time;durP1;ratioP1;P1;durP2;ratioP2;P2;SDS_P1;SDS_P2;PMS_P1;PMS_P2;Temp;Humidity;BMP_temperature;BMP_pressure;BME280_temperature;BME280_humidity;BME280_pressure;Samples;Min_cycle;Max_cycle;Signal;HPM_P1;HPM_P2
2022/12/08 00:00:11;;;;;;;2.30;2.20;;;;;;;0.43;83.99;99116.56;210536;1301;141489;-63
2022/12/08 00:10:57;;;;;;;6.50;4.00;;;;;;;0.27;84.10;99120.83;210465;1286;243596;-62
2022/12/08 00:16:00;;;;;;;6.80;3.20;;;;;;;0.20;84.00;99123.16;210431;1294;139379;-64
2022/12/08 00:21:04;;;;;;;3.60;2.20;;;;;;;0.18;83.66;99133.41;210303;1291;138787;-63
2022/12/08 00:26:07;;;;;;;5.50;2.80;;;;;;;0.10;83.70;99131.30;210507;1300;140256;-65
2022/12/08 00:31:11;;;;;;;4.60;2.40;;;;;;;0.01;83.51;99129.56;210443;1295;139342;-68
2022/12/08 00:36:15;;;;;;;8.10;4.40;;;;;;;-0.03;83.56;99132.73;210627;1299;140548;-67
2022/12/08 00:46:44;;;;;;;9.50;4.50;;;;;;;-0.19;83.68;99139.36;210587;1300;139337;-65
2022/12/08 00:51:47;;;;;;;6.00;5.30;;;;;;;-0.22;83.72;99142.90;210421;1295;139728;-68
2022/12/08 00:56:51;;;;;;;9.10;7.50;;;;;;;-0.19;84.08;99143.84;210383;1291;139827;-68
2022/12/08 01:01:54;;;;;;;7.30;6.60;;;;;;;-0.19;84.12;99147.35;209178;1295;140311;-66
2022/12/08 01:06:58;;;;;;;8.60;5.50;;;;;;;-0.21;84.50;99149.20;210497;1292;139939;-64
2022/12/08 01:12:01;;;;;;;11.90;4.90;;;;;;;-0.24;83.84;99156.73;208902;1286;139657;-69
2022/12/08 01:17:04;;;;;;;8.60;5.10;;;;;;;-0.26;84.25;99160.80;210462;1298;139711;-63
2022/12/08 01:22:08;;;;;;;8.80;5.50;;;;;;;-0.29;84.35;99160.48;210391;1285;140710;-64
2022/12/08 01:27:13;;;;;;;8.50;5.30;;;;;;;-0.34;84.21;99159.30;210438;1292;141064;-69
2022/12/08 01:32:17;;;;;;;6.30;5.60;;;;;;;-0.41;84.38;99163.52;210423;1291;140937;-65
2022/12/08 01:37:20;;;;;;;23.00;10.40;;;;;;;-0.41;83.94;99166.81;210344;1284;140770;-65
2022/12/08 01:42:24;;;;;;;14.80;10.70;;;;;;;-0.40;84.14;99169.34;210450;1294;139948;-66
2022/12/08 01:47:40;;;;;;;17.70;13.40;;;;;;;-0.40;84.40;99172.48;210421;1297;139097;-63
2022/12/08 01:52:52;;;;;;;19.20;9.70;;;;;;;-0.47;84.53;99178.52;209650;1295;140374;-66
2022/12/08 01:58:01;;;;;;;10.10;7.40;;;;;;;-0.48;84.58;99178.05;210266;1295;140743;-64
2022/12/08 02:03:20;;;;;;;13.20;8.90;;;;;;;-0.45;84.50;99175.17;210363;1296;139282;-69
2022/12/08 02:08:24;;;;;;;11.00;9.20;;;;;;;-0.43;84.82;99175.16;210562;1294;140068;-64
2022/12/08 02:13:28;;;;;;;11.00;7.60;;;;;;;-0.44;84.57;99173.83;210384;1301;139742;-67
2022/12/08 02:19:01;;;;;;;9.50;6.10;;;;;;;-0.50;84.62;99179.23;210507;1300;139246;-68
2022/12/08 02:24:44;;;;;;;8.90;6.40;;;;;;;-0.43;84.91;99176.30;210389;1292;245528;-66
2022/12/08 02:30:09;;;;;;;10.70;6.60;;;;;;;-0.42;84.87;99179.77;210336;1295;139581;-66
2022/12/08 02:35:42;;;;;;;15.00;7.40;;;;;;;-0.45;84.90;99184.04;210397;1288;139151;-67
2022/12/08 02:41:24;;;;;;;13.20;8.60;;;;;;;-0.44;84.78;99179.94;210337;1295;141070;-66
2022/12/08 02:46:39;;;;;;;20.50;9.50;;;;;;;-0.41;84.59;99182.52;210293;1294;224399;-64
2022/12/08 02:51:43;;;;;;;15.00;7.60;;;;;;;-0.42;84.72;99178.13;210181;1301;141107;-63
2022/12/08 02:57:08;;;;;;;12.70;8.60;;;;;;;-0.46;84.94;99186.30;210535;1292;141605;-66
2022/12/08 03:02:20;;;;;;;10.90;6.70;;;;;;;-0.50;84.55;99192.33;210510;1293;139540;-63
2022/12/08 03:07:39;;;;;;;15.80;8.10;;;;;;;-0.48;84.47;99196.27;210449;1295;140568;-66
2022/12/08 03:12:49;;;;;;;9.90;7.40;;;;;;;-0.48;84.92;99194.97;209379;1291;139785;-66
2022/12/08 03:17:56;;;;;;;11.00;7.00;;;;;;;-0.47;85.04;99201.04;207473;1281;141084;-66
2022/12/08 03:23:05;;;;;;;10.80;7.10;;;;;;;-0.48;85.16;99200.10;210585;1293;140767;-71
2022/12/08 03:28:08;;;;;;;9.60;6.60;;;;;;;-0.47;84.87;99195.96;210522;1295;140121;-65
2022/12/08 03:33:22;;;;;;;11.80;7.10;;;;;;;-0.46;85.05;99195.17;210531;1287;139096;-68
2022/12/08 03:38:37;;;;;;;11.00;7.30;;;;;;;-0.48;85.18;99190.05;210534;1295;140686;-66
2022/12/08 03:43:41;;;;;;;11.30;7.00;;;;;;;-0.52;85.02;99187.67;210265;1295;138813;-65
2022/12/08 03:48:44;;;;;;;11.30;6.30;;;;;;;-0.53;84.99;99194.48;210679;1294;205089;-64
2022/12/08 03:53:48;;;;;;;9.10;6.40;;;;;;;-0.49;84.97;99194.02;210409;1286;141352;-65
2022/12/08 03:58:53;;;;;;;13.70;7.30;;;;;;;-0.50;84.77;99197.23;210524;1295;140997;-67
2022/12/08 04:03:56;;;;;;;12.10;6.80;;;;;;;-0.50;85.25;99201.78;210592;1295;140786;-66
2022/12/08 04:08:59;;;;;;;15.10;7.50;;;;;;;-0.45;84.85;99200.86;210568;1294;141124;-65
2022/12/08 04:14:03;;;;;;;11.00;7.90;;;;;;;-0.40;85.00;99201.28;210467;1294;141356;-65
2022/12/08 04:19:06;;;;;;;11.50;6.70;;;;;;;-0.35;85.01;99202.36;210459;1287;301129;-65
2022/12/08 04:24:09;;;;;;;6.60;4.70;;;;;;;-0.38;85.00;99196.78;210522;1298;139715;-67
2022/12/08 04:29:13;;;;;;;11.70;5.50;;;;;;;-0.40;84.87;99202.00;210645;1292;139724;-65
2022/12/08 04:34:16;;;;;;;8.70;5.70;;;;;;;-0.37;84.59;99204.15;210143;1294;140285;-66
2022/12/08 04:39:19;;;;;;;13.80;6.30;;;;;;;-0.42;84.69;99214.65;210264;1295;139465;-66
2022/12/08 04:44:22;;;;;;;9.70;5.00;;;;;;;-0.47;84.68;99215.21;210520;1296;139627;-68
2022/12/08 04:49:26;;;;;;;8.00;5.60;;;;;;;-0.53;84.75;99212.41;210774;1289;139002;-67
2022/12/08 04:54:29;;;;;;;17.30;7.50;;;;;;;-0.58;84.58;99218.48;210672;1295;224378;-67
2022/12/08 04:59:33;;;;;;;9.80;6.20;;;;;;;-0.59;84.50;99219.64;209299;1291;140858;-68
2022/12/08 05:04:36;;;;;;;8.70;6.10;;;;;;;-0.56;84.58;99218.16;207226;1286;141367;-70
2022/12/08 05:09:39;;;;;;;10.80;6.10;;;;;;;-0.59;84.59;99210.66;210689;1295;138744;-68
2022/12/08 05:14:43;;;;;;;6.30;5.20;;;;;;;-0.66;84.25;99201.25;209784;1295;139479;-65
2022/12/08 05:19:46;;;;;;;7.60;5.90;;;;;;;-0.66;84.47;99198.11;210486;1285;139755;-67
2022/12/08 05:24:49;;;;;;;14.60;5.50;;;;;;;-0.72;84.26;99202.23;210389;1293;140953;-66
2022/12/08 05:29:54;;;;;;;9.30;5.50;;;;;;;-0.79;84.45;99207.38;210270;1295;140386;-65
2022/12/08 05:34:57;;;;;;;9.90;5.00;;;;;;;-0.87;84.31;99210.58;210362;1287;142634;-67
2022/12/08 05:40:00;;;;;;;10.70;5.30;;;;;;;-0.95;84.20;99210.72;210032;1287;139145;-67
2022/12/08 05:45:04;;;;;;;8.00;5.40;;;;;;;-0.99;84.16;99213.38;209732;1286;140606;-66
2022/12/08 05:50:08;;;;;;;12.60;7.80;;;;;;;-1.02;84.21;99217.00;210496;1287;139276;-66
2022/12/08 05:55:11;;;;;;;12.00;6.10;;;;;;;-1.08;84.45;99216.41;210480;1279;138784;-66
2022/12/08 06:00:15;;;;;;;10.00;6.20;;;;;;;-1.11;84.77;99230.09;210580;1285;139622;-65
2022/12/08 06:05:18;;;;;;;10.00;6.30;;;;;;;-1.19;84.20;99235.89;208789;1286;139419;-66
2022/12/08 06:10:22;;;;;;;11.80;7.40;;;;;;;-1.25;84.03;99238.16;210242;1295;140231;-67
2022/12/08 06:15:25;;;;;;;12.10;8.40;;;;;;;-1.36;83.92;99240.68;210257;1286;139459;-66
2022/12/08 06:20:29;;;;;;;12.40;7.60;;;;;;;-1.48;84.01;99236.52;209019;1294;140148;-67
2022/12/08 06:25:32;;;;;;;22.00;8.10;;;;;;;-1.62;83.97;99244.71;210341;1294;139855;-67
2022/12/08 06:30:36;;;;;;;12.20;7.50;;;;;;;-1.70;84.20;99249.04;210404;1295;139931;-66
2022/12/08 06:35:41;;;;;;;16.40;9.70;;;;;;;-1.71;84.41;99248.65;210484;1295;139121;-68
2022/12/08 06:40:52;;;;;;;18.60;10.20;;;;;;;-1.60;84.65;99249.48;210405;1285;140464;-69
2022/12/08 06:45:55;;;;;;;21.40;12.80;;;;;;;-1.46;84.83;99253.52;210609;1303;139642;-68
2022/12/08 06:51:09;;;;;;;23.70;12.80;;;;;;;-1.33;85.29;99249.86;210621;1286;140193;-68
2022/12/08 06:56:14;;;;;;;21.10;11.60;;;;;;;-1.23;85.46;99258.73;210682;1301;140386;-68
2022/12/08 07:01:18;;;;;;;18.50;11.50;;;;;;;-1.13;85.34;99259.39;210524;1295;140499;-67
2022/12/08 07:06:23;;;;;;;20.70;12.90;;;;;;;-0.99;85.27;99257.34;210740;1288;142241;-69
2022/12/08 07:11:27;;;;;;;19.70;11.30;;;;;;;-0.90;85.12;99252.98;210586;1295;140429;-67
2022/12/08 07:16:31;;;;;;;22.70;13.40;;;;;;;-0.81;85.52;99250.73;207271;1301;140483;-67
2022/12/08 07:21:34;;;;;;;18.60;10.20;;;;;;;-0.76;85.59;99251.00;210713;1286;139164;-65
2022/12/08 07:26:39;;;;;;;19.70;11.50;;;;;;;-0.65;85.35;99247.15;210544;1295;244453;-64
2022/12/08 07:31:44;;;;;;;22.30;11.10;;;;;;;-0.59;85.45;99243.55;210384;1291;139741;-64
2022/12/08 07:36:47;;;;;;;21.20;11.90;;;;;;;-0.55;85.80;99243.18;210498;1295;141040;-66
2022/12/08 07:41:51;;;;;;;23.10;12.10;;;;;;;-0.41;85.94;99251.38;210525;1293;141178;-66
2022/12/08 07:46:54;;;;;;;21.10;12.40;;;;;;;-0.30;85.72;99250.85;210747;1295;140044;-65
2022/12/08 07:51:57;;;;;;;16.10;10.10;;;;;;;-0.21;86.13;99251.16;210553;1295;141087;-63
2022/12/08 07:57:02;;;;;;;26.30;13.40;;;;;;;-0.08;85.95;99250.48;210037;1292;139606;-64
2022/12/08 08:02:10;;;;;;;12.40;9.80;;;;;;;0.17;86.27;99249.48;210457;1288;142285;-64
2022/12/08 08:07:30;;;;;;;23.00;14.80;;;;;;;0.32;85.95;99248.56;210514;1286;140561;-67
2022/12/08 08:12:33;;;;;;;21.30;14.10;;;;;;;0.42;86.01;99246.88;210578;1293;140477;-67
2022/12/08 08:17:37;;;;;;;22.40;13.30;;;;;;;0.55;86.03;99250.21;210448;1294;140037;-67
2022/12/08 08:22:40;;;;;;;25.40;14.10;;;;;;;0.73;86.18;99253.82;210428;1295;140701;-67
2022/12/08 08:27:45;;;;;;;26.10;15.00;;;;;;;0.84;85.77;99253.56;210494;1295;139797;-67
2022/12/08 08:32:49;;;;;;;21.80;12.30;;;;;;;0.86;85.66;99255.28;210520;1285;139545;-67
2022/12/08 08:37:53;;;;;;;14.60;8.80;;;;;;;0.87;85.66;99249.56;210560;1301;139990;-67
2022/12/08 08:43:00;;;;;;;15.10;10.10;;;;;;;0.89;85.50;99250.13;210728;1294;139392;-69
2022/12/08 08:48:03;;;;;;;25.00;14.30;;;;;;;0.91;85.75;99253.03;210618;1293;139250;-67
2022/12/08 08:53:07;;;;;;;19.30;12.80;;;;;;;1.03;85.69;99253.04;210455;1295;141306;-67
2022/12/08 08:58:10;;;;;;;21.40;12.50;;;;;;;1.16;85.86;99252.84;210400;1290;139707;-67
2022/12/08 09:03:13;;;;;;;20.10;11.60;;;;;;;1.39;86.19;99251.04;210535;1294;139756;-67
2022/12/08 09:08:18;;;;;;;19.80;12.70;;;;;;;1.61;85.91;99246.75;210543;1295;139018;-67
2022/12/08 09:13:22;;;;;;;20.80;14.20;;;;;;;1.83;85.75;99237.55;210656;1288;139429;-67
2022/12/08 09:18:25;;;;;;;21.70;14.00;;;;;;;1.90;85.69;99237.15;210510;1295;140587;-65
2022/12/08 09:23:29;;;;;;;22.00;13.30;;;;;;;1.92;85.90;99235.31;210519;1293;139102;-66
2022/12/08 09:28:37;;;;;;;20.00;13.10;;;;;;;1.92;85.30;99232.56;209568;1294;247951;-65
2022/12/08 09:33:41;;;;;;;21.20;13.90;;;;;;;2.03;85.40;99223.47;210428;1287;140380;-67
2022/12/08 09:38:45;;;;;;;21.70;11.40;;;;;;;2.20;85.65;99218.34;210698;1295;140896;-67
2022/12/08 09:44:20;;;;;;;18.50;12.10;;;;;;;2.33;85.34;99215.32;210422;1286;141504;-66
2022/12/08 09:49:37;;;;;;;13.40;10.00;;;;;;;2.52;85.38;99204.51;207120;1298;217462;-66
2022/12/08 09:54:40;;;;;;;19.60;12.20;;;;;;;2.61;85.46;99200.02;207814;1294;139167;-64
2022/12/08 09:59:52;;;;;;;20.30;12.60;;;;;;;2.58;84.84;99194.67;210193;1295;141074;-66
2022/12/08 10:04:58;;;;;;;22.50;12.00;;;;;;;2.46;84.49;99196.67;207645;1300;140232;-64
2022/12/08 10:10:06;;;;;;;18.50;11.00;;;;;;;2.36;84.64;99199.92;210326;1292;141028;-64
2022/12/08 10:15:34;;;;;;;18.80;12.50;;;;;;;2.34;84.68;99194.64;210651;1295;140397;-63
2022/12/08 10:20:44;;;;;;;14.50;8.70;;;;;;;2.34;84.55;99191.16;210535;1295;139929;-65
2022/12/08 10:25:51;;;;;;;18.60;11.90;;;;;;;2.36;84.52;99184.34;210533;1290;139257;-65
2022/12/08 10:30:55;;;;;;;16.70;12.10;;;;;;;2.39;84.65;99176.38;210663;1298;139868;-65
2022/12/08 10:36:03;;;;;;;26.40;13.60;;;;;;;2.37;84.26;99168.28;210491;1295;140072;-65
2022/12/08 10:41:10;;;;;;;15.20;11.10;;;;;;;2.38;84.01;99167.27;210658;1288;141382;-65
2022/12/08 10:46:24;;;;;;;23.80;13.10;;;;;;;2.32;83.98;99163.32;210605;1287;138770;-65
2022/12/08 10:51:39;;;;;;;20.70;14.90;;;;;;;2.33;83.71;99157.17;210423;1295;141539;-65
2022/12/08 10:56:53;;;;;;;19.00;14.50;;;;;;;2.41;83.98;99154.34;210654;1287;141164;-65
2022/12/08 11:01:59;;;;;;;23.10;15.30;;;;;;;2.45;83.92;99154.83;210651;1295;140796;-65
2022/12/08 11:07:05;;;;;;;22.20;12.20;;;;;;;2.63;84.05;99150.20;210734;1295;140459;-65
2022/12/08 11:12:14;;;;;;;19.60;13.60;;;;;;;2.75;84.05;99147.64;210500;1291;150972;-66
2022/12/08 11:17:20;;;;;;;25.00;14.70;;;;;;;2.90;83.86;99141.97;210602;1298;140655;-65
2022/12/08 11:22:28;;;;;;;16.80;13.40;;;;;;;2.91;83.57;99148.61;210648;1295;140780;-65
2022/12/08 11:27:32;;;;;;;;;;;;;;;2.90;83.63;99150.35;210695;1295;140872;-64
2022/12/08 11:32:40;;;;;;;20.30;15.10;;;;;;;2.98;83.77;99150.02;211244;1298;125841;-65
2022/12/08 11:37:43;;;;;;;23.70;15.60;;;;;;;2.97;83.28;99144.05;210673;1294;140117;-66
2022/12/08 11:43:18;;;;;;;21.10;14.30;;;;;;;2.88;83.43;99132.20;209590;1300;139330;-68
2022/12/08 11:48:31;;;;;;;19.90;13.40;;;;;;;2.82;83.33;99125.06;210577;1291;247029;-66
2022/12/08 11:53:59;;;;;;;18.60;13.70;;;;;;;2.86;83.56;99127.26;209840;1295;140423;-65
2022/12/08 11:59:33;;;;;;;21.50;13.50;;;;;;;2.89;83.79;99123.65;208963;1291;139815;-66
2022/12/08 12:05:00;;;;;;;24.70;14.40;;;;;;;2.88;83.59;99120.58;209470;1291;140283;-66
2022/12/08 12:10:12;;;;;;;18.70;12.80;;;;;;;2.89;83.35;99114.67;210592;1295;140390;-65
2022/12/08 12:15:29;;;;;;;17.20;12.50;;;;;;;2.90;83.24;99108.64;210533;1295;139883;-65
2022/12/08 12:20:41;;;;;;;16.80;10.50;;;;;;;2.90;83.69;99099.69;210571;1295;139427;-65
2022/12/08 12:26:08;;;;;;;17.30;12.50;;;;;;;2.90;83.29;99096.20;210478;1294;139525;-65
2022/12/08 12:31:16;;;;;;;25.00;14.10;;;;;;;2.96;83.42;99095.13;210140;1294;139906;-65
2022/12/08 12:36:21;;;;;;;19.70;12.00;;;;;;;2.93;83.44;99093.38;210335;1295;140553;-66
2022/12/08 12:41:29;;;;;;;16.00;10.90;;;;;;;3.01;83.64;99087.95;210310;1294;141262;-65
2022/12/08 12:46:35;;;;;;;15.70;10.40;;;;;;;3.17;83.36;99082.23;210659;1294;142319;-66
2022/12/08 12:51:52;;;;;;;15.60;11.70;;;;;;;3.26;83.43;99076.98;210675;1295;139413;-67
2022/12/08 12:57:19;;;;;;;13.80;9.80;;;;;;;3.33;83.51;99077.71;210455;1292;150061;-65
2022/12/08 13:02:34;;;;;;;16.10;9.90;;;;;;;3.42;83.32;99076.91;210569;1296;139695;-65
2022/12/08 13:07:48;;;;;;;15.50;10.40;;;;;;;3.44;83.07;99067.91;210119;1286;139848;-65
2022/12/08 13:13:09;;;;;;;10.10;8.20;;;;;;;3.42;83.15;99072.73;210430;1299;139819;-64
2022/12/08 13:18:24;;;;;;;12.10;8.90;;;;;;;3.35;82.60;99072.23;210304;1287;140276;-63
2022/12/08 13:23:35;;;;;;;13.70;8.70;;;;;;;3.37;83.05;99074.52;210512;1295;140294;-64
2022/12/08 13:28:57;;;;;;;11.80;7.30;;;;;;;3.37;82.98;99078.94;208579;1302;141241;-62
2022/12/08 13:34:26;;;;;;;17.40;9.80;;;;;;;3.32;82.55;99075.45;210463;1295;139941;-70
2022/12/08 13:39:52;;;;;;;17.20;10.10;;;;;;;3.32;82.64;99075.67;210171;1295;140597;-66
2022/12/08 13:45:28;;;;;;;13.30;9.90;;;;;;;3.31;82.89;99080.06;209354;1294;141251;-65
2022/12/08 13:51:04;;;;;;;16.10;9.50;;;;;;;3.31;82.70;99080.67;209860;1293;246830;-65
2022/12/08 13:56:33;;;;;;;18.10;10.90;;;;;;;3.33;82.55;99074.10;210385;1296;139862;-68
2022/12/08 14:02:03;;;;;;;91.50;50.60;;;;;;;3.32;82.51;99082.81;210474;1294;140087;-67
2022/12/08 14:07:08;;;;;;;21.30;11.50;;;;;;;3.27;82.55;99083.30;210450;1295;139655;-69
2022/12/08 14:12:25;;;;;;;51.20;28.00;;;;;;;3.19;82.39;99084.95;208613;1293;140220;-69
2022/12/08 14:17:33;;;;;;;29.30;21.60;;;;;;;3.17;82.38;99084.23;208950;1295;140104;-65
2022/12/08 14:22:40;;;;;;;22.40;17.20;;;;;;;3.09;82.45;99084.83;208624;1292;142047;-67
2022/12/08 14:27:45;;;;;;;18.50;11.70;;;;;;;3.01;82.64;99083.91;209629;1298;139390;-65
2022/12/08 14:32:51;;;;;;;19.70;12.00;;;;;;;2.95;82.41;99086.90;207210;1296;141412;-67
2022/12/08 14:38:04;;;;;;;19.20;10.40;;;;;;;2.86;82.51;99081.01;207658;1301;139687;-65
2022/12/08 14:43:08;;;;;;;18.00;10.60;;;;;;;2.86;82.64;99083.84;210461;1295;139351;-67
2022/12/08 14:48:37;;;;;;;17.30;11.80;;;;;;;2.84;82.65;99086.63;210524;1301;139710;-67
2022/12/08 14:53:45;;;;;;;16.10;12.50;;;;;;;2.80;82.78;99085.85;210477;1298;139316;-67
2022/12/08 14:59:06;;;;;;;18.70;12.70;;;;;;;2.78;82.87;99089.09;210478;1300;140351;-67
2022/12/08 15:04:13;;;;;;;18.20;11.70;;;;;;;2.65;82.36;99085.23;210393;1298;140161;-66
2022/12/08 15:09:33;;;;;;;25.60;14.50;;;;;;;2.59;82.26;99089.34;210323;1294;141058;-69
2022/12/08 15:15:07;;;;;;;21.60;14.70;;;;;;;2.59;82.55;99093.23;210329;1292;140216;-62
2022/12/08 15:20:29;;;;;;;23.70;16.70;;;;;;;2.56;82.51;99096.21;209886;1296;140018;-65
2022/12/08 15:25:37;;;;;;;24.10;14.30;;;;;;;2.44;82.38;99096.43;210324;1291;140650;-66
2022/12/08 15:30:41;;;;;;;25.00;15.80;;;;;;;2.27;81.99;99096.85;210456;1291;139733;-67
2022/12/08 15:35:45;;;;;;;31.80;15.50;;;;;;;2.16;81.98;99096.48;210420;1298;142415;-65
2022/12/08 15:40:50;;;;;;;25.60;16.50;;;;;;;2.12;82.30;99094.79;210404;1295;139795;-66
2022/12/08 15:45:54;;;;;;;22.90;13.80;;;;;;;2.09;82.63;99093.56;210527;1295;139955;-66
2022/12/08 15:51:03;;;;;;;29.60;17.80;;;;;;;2.07;82.68;99093.48;210535;1295;140155;-67
2022/12/08 15:56:07;;;;;;;27.10;15.50;;;;;;;2.13;82.59;99089.85;208827;1291;140535;-67
2022/12/08 16:01:31;;;;;;;23.80;13.70;;;;;;;2.18;82.74;99090.58;210286;1301;140878;-68
2022/12/08 16:06:34;;;;;;;24.40;16.00;;;;;;;2.16;82.78;99090.70;209659;1295;140358;-67
2022/12/08 16:17:22;;;;;;;25.00;15.60;;;;;;;2.09;82.47;99084.21;210373;1294;223232;-67
2022/12/08 16:22:28;;;;;;;25.40;16.50;;;;;;;2.08;82.72;99086.55;210144;1291;316312;-68
2022/12/08 16:27:54;;;;;;;28.00;15.70;;;;;;;2.02;82.62;99083.61;210467;1299;139400;-68
2022/12/08 16:33:10;;;;;;;26.80;15.30;;;;;;;1.94;82.55;99087.69;210213;1295;245762;-69
2022/12/08 16:38:15;;;;;;;25.30;16.70;;;;;;;1.96;82.64;99088.19;210341;1294;141550;-68
2022/12/08 16:43:19;;;;;;;32.00;17.30;;;;;;;1.93;82.50;99087.97;210274;1289;139891;-67
2022/12/08 16:48:22;;;;;;;26.40;18.40;;;;;;;1.93;82.89;99088.98;210301;1295;140378;-67
2022/12/08 16:53:27;;;;;;;31.10;17.50;;;;;;;1.93;83.04;99094.20;210206;1295;140105;-68
2022/12/08 16:58:30;;;;;;;26.40;15.50;;;;;;;1.95;82.92;99089.52;210363;1298;139898;-71
2022/12/08 17:03:34;;;;;;;34.40;19.70;;;;;;;2.02;82.94;99088.91;210433;1294;140465;-66
2022/12/08 17:08:39;;;;;;;28.10;16.30;;;;;;;2.05;83.28;99089.69;210422;1294;140010;-67
2022/12/08 17:13:43;;;;;;;24.40;15.50;;;;;;;2.06;83.28;99084.84;210386;1294;141145;-65
2022/12/08 17:18:47;;;;;;;28.50;16.30;;;;;;;2.08;83.01;99082.35;210307;1295;140131;-66
2022/12/08 17:23:50;;;;;;;25.10;14.60;;;;;;;1.99;82.66;99088.89;208563;1278;140169;-65
2022/12/08 17:28:54;;;;;;;25.20;14.00;;;;;;;1.89;82.57;99087.83;208748;1293;139892;-65
2022/12/08 17:34:09;;;;;;;24.40;14.70;;;;;;;1.83;82.62;99088.28;210510;1294;140791;-66
2022/12/08 17:39:14;;;;;;;20.80;13.50;;;;;;;1.74;82.70;99093.70;210403;1293;245651;-66
2022/12/08 17:44:21;;;;;;;20.20;12.60;;;;;;;1.66;82.55;99094.41;210348;1295;140084;-65
2022/12/08 17:49:28;;;;;;;24.80;15.70;;;;;;;1.63;82.68;99094.63;210249;1286;139928;-66
2022/12/08 17:54:32;;;;;;;23.80;13.80;;;;;;;1.59;82.60;99094.12;210376;1295;141364;-64
2022/12/08 17:59:37;;;;;;;24.40;13.90;;;;;;;1.53;82.33;99094.05;210263;1292;139525;-64
2022/12/08 18:04:45;;;;;;;23.50;14.20;;;;;;;1.50;82.30;99094.36;209797;1294;247591;-67
2022/12/08 18:09:51;;;;;;;27.30;15.90;;;;;;;1.41;82.68;99088.48;210238;1285;140081;-67
2022/12/08 18:14:58;;;;;;;31.30;15.20;;;;;;;1.35;82.39;99084.39;208973;1285;141049;-65
2022/12/08 18:20:07;;;;;;;25.90;16.00;;;;;;;1.32;82.52;99084.20;208602;1295;140447;-65
2022/12/08 18:25:13;;;;;;;30.00;16.50;;;;;;;1.30;82.52;99081.28;210247;1298;141026;-65
2022/12/08 18:30:19;;;;;;;26.90;15.20;;;;;;;1.19;82.42;99076.71;210328;1287;139362;-66
2022/12/08 18:35:27;;;;;;;28.60;16.50;;;;;;;1.16;82.55;99076.59;210327;1295;140467;-66
2022/12/08 18:40:36;;;;;;;26.50;17.60;;;;;;;1.14;82.73;99076.20;210372;1286;141116;-65
2022/12/08 18:45:41;;;;;;;32.20;14.20;;;;;;;1.14;82.84;99078.59;210236;1295;141125;-66
2022/12/08 18:50:49;;;;;;;25.70;13.20;;;;;;;1.09;82.65;99078.73;210352;1294;162424;-65
2022/12/08 18:55:54;;;;;;;24.60;13.90;;;;;;;1.04;82.40;99076.35;210300;1293;220689;-65
2022/12/08 19:01:00;;;;;;;23.40;13.20;;;;;;;0.95;82.73;99081.98;210294;1295;141101;-63
2022/12/08 19:06:08;;;;;;;24.30;13.90;;;;;;;0.86;82.39;99083.33;210329;1296;141277;-66
2022/12/08 19:11:22;;;;;;;24.50;14.40;;;;;;;0.84;82.66;99081.98;210247;1295;141408;-66
2022/12/08 19:16:26;;;;;;;20.80;12.70;;;;;;;0.84;82.72;99083.02;210456;1287;141243;-65
2022/12/08 19:21:33;;;;;;;22.50;14.00;;;;;;;0.82;83.18;99082.39;210325;1295;141317;-66
2022/12/08 19:26:40;;;;;;;19.10;12.90;;;;;;;0.84;82.95;99082.86;210458;1295;140150;-65
2022/12/08 19:31:45;;;;;;;18.70;11.80;;;;;;;0.83;83.43;99082.77;210378;1295;139593;-65
2022/12/08 19:36:49;;;;;;;23.60;12.80;;;;;;;0.83;83.66;99083.98;210352;1293;140246;-66
2022/12/08 19:47:15;;;;;;;22.50;13.70;;;;;;;0.83;83.23;99076.18;207197;1293;245015;-64
2022/12/08 19:52:20;;;;;;;29.80;17.60;;;;;;;0.72;83.27;99076.08;209695;1293;141123;-65
2022/12/08 19:57:23;;;;;;;20.90;11.40;;;;;;;0.65;83.53;99073.75;209743;1295;140056;-66
2022/12/08 20:02:29;;;;;;;22.00;12.90;;;;;;;0.63;83.30;99072.95;210087;1295;151686;-67
2022/12/08 20:07:35;;;;;;;26.40;13.10;;;;;;;0.61;83.50;99077.91;210313;1293;140372;-67
2022/12/08 20:12:39;;;;;;;19.70;10.90;;;;;;;0.54;83.45;99078.73;210609;1295;139537;-68
2022/12/08 20:17:46;;;;;;;25.40;12.40;;;;;;;0.48;83.59;99083.39;210350;1295;140397;-63
2022/12/08 20:22:55;;;;;;;17.70;11.70;;;;;;;0.42;83.03;99088.92;210295;1295;141270;-67
2022/12/08 20:28:01;;;;;;;24.40;14.10;;;;;;;0.33;83.15;99087.70;210107;1295;140977;-65
2022/12/08 20:33:07;;;;;;;29.60;16.20;;;;;;;0.23;83.35;99091.17;210246;1279;140447;-66
2022/12/08 20:38:14;;;;;;;28.80;14.60;;;;;;;0.23;83.43;99088.16;210125;1286;139526;-67
2022/12/08 20:43:19;;;;;;;31.60;18.50;;;;;;;0.20;83.62;99089.61;210323;1294;143839;-64
2022/12/08 20:48:23;;;;;;;21.00;14.10;;;;;;;0.12;83.42;99096.81;210303;1285;140880;-64
2022/12/08 20:53:27;;;;;;;31.80;16.70;;;;;;;0.08;83.55;99098.76;210165;1295;141198;-66
2022/12/08 20:58:31;;;;;;;28.90;15.10;;;;;;;0.07;83.82;99097.23;210281;1295;140007;-66
2022/12/08 21:03:35;;;;;;;32.20;18.60;;;;;;;0.02;83.51;99100.99;210418;1287;140543;-66
2022/12/08 21:08:40;;;;;;;29.80;15.50;;;;;;;-0.04;83.78;99100.30;210559;1287;139969;-67
2022/12/08 21:13:45;;;;;;;25.30;15.20;;;;;;;0.02;83.75;99105.62;210430;1294;139830;-64
2022/12/08 21:18:49;;;;;;;26.60;15.60;;;;;;;0.00;83.64;99103.19;210384;1295;140004;-63
2022/12/08 21:23:52;;;;;;;26.40;15.40;;;;;;;-0.05;84.16;99102.50;210285;1295;139269;-64
2022/12/08 21:28:57;;;;;;;25.00;16.20;;;;;;;-0.09;84.23;99103.60;210457;1295;140566;-62
2022/12/08 21:34:02;;;;;;;26.40;17.40;;;;;;;-0.04;84.33;99100.86;210183;1295;141308;-62
2022/12/08 21:39:11;;;;;;;21.90;14.60;;;;;;;-0.02;84.25;99099.91;210499;1294;140926;-62
2022/12/08 21:44:18;;;;;;;33.10;17.90;;;;;;;-0.01;84.49;99098.55;209998;1293;139887;-67
2022/12/08 21:49:22;;;;;;;22.00;14.20;;;;;;;-0.03;84.83;99099.14;210460;1294;139943;-63
2022/12/08 21:54:26;;;;;;;25.00;16.00;;;;;;;-0.02;84.44;99098.74;210518;1288;140952;-66
2022/12/08 21:59:29;;;;;;;22.50;15.90;;;;;;;0.05;84.91;99090.52;208667;1287;140813;-62
2022/12/08 22:04:37;;;;;;;27.40;16.10;;;;;;;0.09;85.12;99084.95;208908;1288;140829;-62
2022/12/08 22:09:40;;;;;;;22.70;14.30;;;;;;;0.13;85.25;99083.99;207423;1294;139806;-68
2022/12/08 22:14:44;;;;;;;24.00;16.80;;;;;;;0.21;85.14;99076.27;209472;1293;141418;-68
2022/12/08 22:19:48;;;;;;;27.10;16.70;;;;;;;0.23;84.95;99078.92;208388;1295;140517;-66
2022/12/08 22:24:55;;;;;;;92.00;58.00;;;;;;;0.15;84.96;99077.61;207413;1302;219861;-67
2022/12/08 22:29:58;;;;;;;26.50;14.80;;;;;;;0.09;84.54;99081.36;208144;1294;140557;-67
2022/12/08 22:35:02;;;;;;;23.50;13.90;;;;;;;0.04;84.52;99081.19;210275;1293;140359;-64
2022/12/08 22:40:06;;;;;;;32.80;17.60;;;;;;;-0.00;85.00;99081.95;210441;1293;139745;-69
2022/12/08 22:45:11;;;;;;;34.00;16.90;;;;;;;-0.06;84.84;99083.98;210376;1295;139422;-67
2022/12/08 22:50:14;;;;;;;24.90;14.80;;;;;;;-0.02;84.99;99085.72;210470;1295;140900;-66
2022/12/08 22:55:18;;;;;;;31.90;17.10;;;;;;;0.07;85.21;99087.38;210444;1295;139854;-66
2022/12/08 23:00:21;;;;;;;32.50;16.80;;;;;;;0.10;85.12;99084.55;210291;1295;139492;-67
2022/12/08 23:05:25;;;;;;;24.10;15.10;;;;;;;0.07;84.88;99086.70;210280;1293;139577;-64
2022/12/08 23:10:32;;;;;;;25.20;14.00;;;;;;;0.07;85.22;99084.20;210223;1294;140268;-67
2022/12/08 23:15:37;;;;;;;36.20;21.20;;;;;;;0.11;85.03;99081.59;210240;1295;140680;-66
2022/12/08 23:20:42;;;;;;;22.90;16.00;;;;;;;0.09;85.05;99079.75;210228;1302;140729;-62
2022/12/08 23:25:46;;;;;;;32.60;19.60;;;;;;;0.09;85.18;99080.31;210260;1285;150990;-62
2022/12/08 23:30:51;;;;;;;27.40;17.10;;;;;;;0.12;85.00;99073.10;210324;1295;150633;-63
2022/12/08 23:35:56;;;;;;;32.70;18.70;;;;;;;0.19;84.88;99076.42;210334;1295;141392;-63
2022/12/08 23:41:02;;;;;;;26.10;16.90;;;;;;;0.25;85.71;99072.35;210258;1290;139721;-63